Time;durP1;ratioP1;P1;durP2;ratioP2;P2;SDS_P1;SDS_P2;PMS_P1;PMS_P2;Temp;Humidity;BMP_temperature;BMP_pressure;BME280_temperature;BME280_humidity;BME280_pressure;Samples;Min_cycle;Max_cycle;Signal;HPM_P1;HPM_P2
2022/05/20 08:17:14;;;;;;;;;16.60;14.60;;;;;22.37;64.89;102049.22;5068831;27;45788;-88
2022/05/20 08:19:40;;;;;;;;;18.00;17.50;;;;;22.48;64.04;102033.78;5054877;27;47099;-88
2022/05/20 08:22:06;;;;;;;;;19.75;17.00;;;;;22.25;63.85;101977.41;5040493;27;45525;-88
2022/05/20 08:24:32;;;;;;;;;19.20;16.60;;;;;22.40;63.84;101984.00;5041490;27;47123;-85
2022/05/20 08:26:58;;;;;;;;;19.75;17.25;;;;;22.84;63.71;102036.56;5057235;27;46175;-86
2022/05/20 08:29:23;;;;;;;;;23.00;18.20;;;;;22.68;63.91;101974.16;5056917;27;45575;-86
2022/05/20 08:31:49;;;;;;;;;14.50;13.75;;;;;22.76;62.92;101987.78;5068128;27;45720;-87
2022/05/20 08:34:14;;;;;;;;;19.25;17.50;;;;;22.85;62.35;101980.59;5092751;27;45392;-87
2022/05/20 08:36:40;;;;;;;;;19.50;19.25;;;;;23.17;62.28;102021.63;5095422;27;50302;-87
2022/05/20 08:39:06;;;;;;;;;17.50;16.25;;;;;23.62;62.46;102078.53;5052688;27;45517;-87
2022/05/20 08:41:33;;;;;;;;;19.40;17.40;;;;;23.41;62.26;102039.06;5049569;27;46153;-86
2022/05/20 08:43:59;;;;;;;;;19.60;18.60;;;;;23.66;62.34;102057.41;5068943;27;47207;-87
2022/05/20 08:46:25;;;;;;;;;21.00;16.20;;;;;23.38;62.29;102004.19;5047373;27;47095;-87
2022/05/20 08:48:53;;;;;;;;;18.50;17.50;;;;;23.83;61.77;102066.47;5036299;27;45548;-86
2022/05/20 08:51:19;;;;;;;;;18.40;15.40;;;;;24.13;61.52;102114.91;5068955;27;47135;-87
2022/05/20 08:53:45;;;;;;;;;19.40;17.80;;;;;23.88;61.54;102061.44;5028389;27;45691;-86
2022/05/20 08:56:13;;;;;;;;;18.40;15.60;;;;;24.24;61.26;102097.53;5032944;27;45684;-86
2022/05/20 08:58:41;;;;;;;;;21.20;20.60;;;;;23.93;61.10;102042.81;5035675;27;45612;-86
2022/05/20 09:01:08;;;;;;;;;19.40;19.40;;;;;24.56;61.17;102136.69;5016813;27;45572;-87
2022/05/20 09:03:34;;;;;;;;;18.60;18.60;;;;;24.56;60.99;102117.69;5015329;27;45836;-87
2022/05/20 09:06:08;;;;;;;;;19.25;19.25;;;;;24.24;60.96;102059.59;5049706;27;46113;-87
2022/05/20 09:08:34;;;;;;;;;21.20;19.00;;;;;24.69;60.86;102135.38;5049070;27;45659;-87
2022/05/20 09:11:00;;;;;;;;;22.40;20.00;;;;;24.25;60.69;102063.97;5051890;27;45899;-87
2022/05/20 09:16:21;;;;;;;;;23.60;20.40;;;;;24.94;60.37;102138.16;5035602;27;45838;-87
2022/05/20 09:18:48;;;;;;;;;21.00;19.00;;;;;24.75;60.26;102099.47;5050280;27;45557;-86
2022/05/20 09:21:24;;;;;;;;;25.80;21.20;;;;;24.83;60.70;102109.47;5059662;27;46258;-87
2022/05/20 09:23:57;;;;;;;;;22.40;21.40;;;;;24.89;60.21;102121.53;5048818;27;45766;-86
2022/05/20 09:26:25;;;;;;;;;21.00;21.00;;;;;24.67;60.29;102077.72;5054289;27;48190;-86
2022/05/20 09:28:52;;;;;;;;;25.20;22.00;;;;;24.82;59.99;102094.19;5037048;28;47133;-86
2022/05/20 09:31:43;;;;;;;;;23.00;20.00;;;;;24.55;60.03;102045.50;5060979;27;45604;-86
2022/05/20 09:34:14;;;;;;;;;21.60;21.60;;;;;25.10;60.01;102117.53;5033262;28;45733;-87
2022/05/20 09:36:40;;;;;;;;;22.40;22.40;;;;;25.32;59.79;102153.22;5056246;27;47443;-87
2022/05/20 09:39:17;;;;;;;;;22.25;20.25;;;;;25.18;59.56;102125.69;5051417;28;52022;-87
2022/05/20 09:41:50;;;;;;;;;18.40;18.00;;;;;25.13;59.02;102117.19;5026832;28;46745;-86
2022/05/20 09:44:19;;;;;;;;;21.80;21.60;;;;;25.11;59.06;102108.38;5020265;28;45519;-86
2022/05/20 09:46:59;;;;;;;;;20.40;20.00;;;;;24.76;59.03;102046.88;5055546;28;46342;-86
2022/05/20 09:49:39;;;;;;;;;18.80;18.20;;;;;25.50;58.83;102160.34;5044171;28;46194;-86
2022/05/20 09:52:42;;;;;;;;;21.40;18.00;;;;;25.24;58.88;102125.00;5054364;28;45412;-86
2022/05/20 09:55:34;;;;;;;;;22.00;21.40;;;;;25.43;58.41;102143.88;5035159;28;45671;-86
2022/05/20 09:58:27;;;;;;;;;26.00;21.60;;;;;25.43;58.67;102138.44;5036979;28;46586;-87
2022/05/20 10:01:01;;;;;;;;;21.20;20.40;;;;;25.62;58.35;102161.69;5034726;28;45495;-86
2022/05/20 10:03:38;;;;;;;;;22.60;21.60;;;;;25.49;58.60;102154.06;5051204;28;45396;-87
2022/05/20 10:06:24;;;;;;;;;19.80;18.80;;;;;25.44;58.62;102138.28;5050789;28;45390;-86
2022/05/20 10:09:08;;;;;;;;;25.00;21.80;;;;;25.57;58.42;102161.38;5020201;28;47146;-87
2022/05/20 10:11:37;;;;;;;;;17.60;17.60;;;;;25.63;58.26;102174.28;5034791;28;45554;-86
2022/05/20 10:14:07;;;;;;;;;19.00;17.40;;;;;25.42;57.90;102134.88;5044826;28;45519;-86
2022/05/20 10:16:53;;;;;;;;;20.80;18.80;;;;;25.78;58.12;102185.34;5061697;28;47274;-86
2022/05/20 10:19:24;;;;;;;;;17.00;15.20;;;;;25.59;57.41;102159.31;5058066;28;45489;-86
2022/05/20 10:22:04;;;;;;;;;13.00;13.00;;;;;25.75;57.66;102185.69;5055498;28;45479;-86
2022/05/20 10:25:17;;;;;;;;;17.00;15.80;;;;;25.77;57.84;102194.50;5065611;28;45469;-87
2022/05/20 10:32:34;;;;;;;;;15.00;14.80;;;;;25.88;57.16;102211.50;5009138;28;45356;-87
2022/05/20 10:33:51;;;;;;;;;14.20;11.40;;;;;25.66;56.56;102176.66;5012008;28;45480;-87
2022/05/20 10:36:23;;;;;;;;;13.75;12.50;;;;;25.77;56.62;102190.94;4985300;28;45738;-87
2022/05/20 10:39:01;;;;;;;;;11.60;11.60;;;;;25.86;56.82;102203.53;5005689;28;45689;-86
2022/05/20 10:42:10;;;;;;;;;11.80;9.20;;;;;25.45;56.70;102137.25;5009783;28;46598;-89
2022/05/20 10:50:31;;;;;;;;;12.20;11.40;;;;;25.59;56.56;102148.44;4952014;28;45447;-86
2022/05/20 10:53:10;;;;;;;;;11.60;11.60;;;;;25.90;56.47;102193.97;4970652;28;45937;-87
2022/05/20 10:56:02;;;;;;;;;10.80;10.80;;;;;26.07;56.44;102215.75;4962352;28;45603;-87
2022/05/20 10:58:41;;;;;;;;;12.20;11.40;;;;;26.07;55.99;102218.47;4951569;28;45714;-87
2022/05/20 11:01:40;;;;;;;;;8.60;8.60;;;;;26.11;56.21;102216.22;4933707;28;45667;-87
2022/05/20 11:04:05;;;;;;;;;9.60;9.60;;;;;26.12;56.13;102215.22;4970719;28;47079;-87
2022/05/20 11:06:49;;;;;;;;;10.00;10.00;;;;;26.15;56.27;102230.34;5005931;28;45428;-87
2022/05/20 11:09:17;;;;;;;;;10.80;10.80;;;;;26.17;56.18;102236.44;5005669;28;45365;-88
2022/05/20 11:11:42;;;;;;;;;11.00;10.00;;;;;26.18;55.87;102228.13;5005330;28;45419;-86
2022/05/20 11:14:32;;;;;;;;;9.75;9.00;;;;;25.93;55.96;102187.38;5008401;28;47991;-86
2022/05/20 11:17:25;;;;;;;;;13.80;10.80;;;;;26.21;55.92;102238.66;4990429;28;46308;-86
2022/05/20 11:20:15;;;;;;;;;11.00;11.00;;;;;26.23;55.71;102246.63;5010487;28;45478;-87
2022/05/20 11:23:16;;;;;;;;;9.60;8.20;;;;;26.25;55.96;102244.59;5049607;28;45811;-87
2022/05/20 11:25:56;;;;;;;;;11.60;9.80;;;;;26.27;55.71;102250.72;5003518;28;46216;-87
2022/05/20 11:28:40;;;;;;;;;10.00;10.00;;;;;26.28;55.97;102257.84;4990108;28;45544;-87
2022/05/20 11:31:16;;;;;;;;;12.60;11.60;;;;;26.27;55.48;102253.44;5002420;28;45477;-87
2022/05/20 11:33:54;;;;;;;;;10.20;9.80;;;;;26.32;55.94;102256.50;5001605;28;45534;-87
2022/05/20 11:36:34;;;;;;;;;10.40;10.40;;;;;26.32;55.72;102261.94;5009405;28;47449;-88
2022/05/20 11:39:14;;;;;;;;;8.80;8.20;;;;;26.34;55.36;102259.88;5008224;28;45511;-87
2022/05/20 11:42:12;;;;;;;;;12.20;11.00;;;;;26.14;55.44;102232.19;5004423;28;45706;-87
2022/05/20 11:45:10;;;;;;;;;11.40;11.40;;;;;26.10;55.55;102223.56;4990719;28;45679;-87
2022/05/20 11:47:43;;;;;;;;;11.00;9.80;;;;;26.39;55.09;102272.13;4991097;28;45725;-87
2022/05/20 11:50:29;;;;;;;;;12.20;10.80;;;;;26.39;54.81;102269.41;4976172;28;45472;-87
2022/05/20 11:53:11;;;;;;;;;11.20;10.80;;;;;26.40;55.07;102276.53;4984503;28;45524;-86
2022/05/20 11:55:55;;;;;;;;;10.60;10.00;;;;;26.22;55.01;102250.41;5013777;28;45460;-88
2022/05/20 11:58:26;;;;;;;;;11.00;10.40;;;;;26.42;54.77;102277.22;4991421;28;45847;-87
2022/05/20 12:00:52;;;;;;;;;10.40;10.40;;;;;26.02;54.28;102220.81;5009425;28;45498;-87
2022/05/20 12:03:20;;;;;;;;;7.75;7.00;;;;;26.08;54.24;102233.72;5020657;28;45653;-88
2022/05/20 12:05:47;;;;;;;;;7.60;7.60;;;;;26.43;54.06;102287.06;5014594;28;45443;-88
2022/05/20 12:08:37;;;;;;;;;9.80;8.40;;;;;26.43;54.45;102284.34;5017297;28;46768;-87
2022/05/20 12:11:29;;;;;;;;;6.00;6.00;;;;;26.44;54.28;102286.06;5056561;28;45503;-88
2022/05/20 12:14:14;;;;;;;;;9.40;8.00;;;;;26.26;54.24;102261.75;5050615;28;45859;-88
2022/05/20 12:16:58;;;;;;;;;8.40;7.00;;;;;26.44;54.33;102292.34;5082573;27;45445;-87
2022/05/20 12:24:54;;;;;;;;;8.60;7.00;;;;;26.30;53.76;102272.16;5035016;28;45514;-87
2022/05/20 12:27:22;;;;;;;;;6.00;6.00;;;;;26.48;54.31;102308.38;5051296;28;45554;-87
2022/05/20 12:30:06;;;;;;;;;8.20;6.60;;;;;26.48;54.30;102311.91;5052102;28;45415;-86
2022/05/20 12:32:34;;;;;;;;;4.80;4.80;;;;;26.48;54.06;102309.19;5065508;27;45531;-87
2022/05/20 12:35:28;;;;;;;;;8.40;8.00;;;;;26.49;53.97;102310.91;5077075;27;45243;-87
2022/05/20 12:37:56;;;;;;;;;6.20;6.00;;;;;26.35;53.93;102283.34;5084864;27;45498;-87
2022/05/20 12:40:27;;;;;;;;;8.80;7.00;;;;;26.50;53.79;102312.63;5049045;28;46488;-86
2022/05/20 12:43:13;;;;;;;;;8.40;8.00;;;;;26.50;53.90;102309.91;5049781;28;45412;-87
2022/05/20 12:45:51;;;;;;;;;6.00;6.00;;;;;26.51;54.00;102317.00;5063763;27;45447;-87
2022/05/20 12:48:29;;;;;;;;;8.40;6.20;;;;;26.42;53.49;102309.88;5062848;27;45701;-87
2022/05/20 12:51:21;;;;;;;;;6.80;5.60;;;;;26.41;53.77;102316.31;5032707;28;46541;-87
2022/05/20 12:53:46;;;;;;;;;5.80;5.60;;;;;26.30;53.26;102288.47;5036917;28;45574;-88
2022/05/20 12:56:29;;;;;;;;;5.00;5.00;;;;;26.38;53.07;102303.06;5028984;28;45358;-86
2022/05/20 12:59:11;;;;;;;;;7.20;6.00;;;;;26.45;53.32;102309.50;5084480;27;45310;-87
2022/05/20 13:01:36;;;;;;;;;7.20;7.20;;;;;26.51;52.70;102325.19;5061590;28;46765;-86
2022/05/20 13:04:02;;;;;;;;;5.50;5.50;;;;;25.91;52.80;102232.91;5050129;28;45574;-87
2022/05/20 13:06:27;;;;;;;;;5.75;5.75;;;;;26.21;52.65;102286.75;5031540;28;45538;-87
2022/05/20 13:09:02;;;;;;;;;5.50;5.50;;;;;26.36;53.04;102311.41;5067456;27;45514;-86
2022/05/20 13:11:30;;;;;;;;;6.40;6.40;;;;;26.44;52.46;102318.72;5067623;27;47660;-87
2022/05/20 13:13:59;;;;;;;;;6.20;5.80;;;;;26.49;52.29;102324.50;5034042;28;45356;-87
2022/05/20 13:16:24;;;;;;;;;8.00;6.00;;;;;26.22;52.14;102285.75;5048066;28;45744;-87
2022/05/20 13:19:01;;;;;;;;;6.25;5.50;;;;;26.46;52.82;102330.28;5081848;27;48964;-87
2022/05/20 13:21:27;;;;;;;;;8.20;5.20;;;;;26.31;52.42;102298.31;5051565;28;46212;-88
2022/05/20 13:23:54;;;;;;;;;4.80;4.80;;;;;26.55;51.99;102336.56;5035113;28;45522;-87
2022/05/20 13:26:27;;;;;;;;;5.40;5.40;;;;;26.42;52.60;102316.13;5055465;28;45312;-86
2022/05/20 13:29:12;;;;;;;;;7.00;6.00;;;;;26.39;52.49;102310.22;5043551;28;45516;-87
2022/05/20 13:31:38;;;;;;;;;7.00;4.80;;;;;26.44;52.15;102324.16;5037599;28;45687;-88
2022/05/20 13:34:03;;;;;;;;;5.25;4.75;;;;;26.60;51.84;102355.09;5049555;28;46040;-87
2022/05/20 13:36:36;;;;;;;;;6.00;4.75;;;;;25.90;52.24;102248.34;5048017;28;45657;-88
2022/05/20 13:39:02;;;;;;;;;8.60;7.80;;;;;26.39;51.94;102321.09;5046470;28;45576;-88
2022/05/20 13:41:30;;;;;;;;;7.50;5.00;;;;;26.27;52.33;102302.41;5051124;28;45522;-88
2022/05/20 13:43:56;;;;;;;;;4.80;4.80;;;;;25.90;51.86;102242.91;5056352;28;45423;-87
2022/05/20 13:49:15;;;;;;;;;6.60;5.40;;;;;26.61;51.79;102354.09;5050318;28;45486;-86
2022/05/20 13:51:41;;;;;;;;;5.00;4.80;;;;;26.64;52.14;102356.47;5035638;28;45658;-87
2022/05/20 13:54:11;;;;;;;;;4.50;4.50;;;;;25.89;52.32;102235.78;5055465;28;45452;-88
2022/05/20 13:56:38;;;;;;;;;4.80;4.80;;;;;25.98;52.22;102244.81;5035909;28;45442;-87
2022/05/20 13:59:30;;;;;;;;;5.60;4.00;;;;;26.62;52.48;102353.06;5045911;28;45484;-87
2022/05/20 14:02:10;;;;;;;;;7.80;5.20;;;;;26.32;52.03;102310.91;5055892;28;46657;-87
2022/05/20 14:04:52;;;;;;;;;7.60;4.40;;;;;26.61;52.34;102352.22;5051214;28;45397;-87
2022/05/20 14:07:23;;;;;;;;;5.40;5.40;;;;;26.67;52.21;102356.13;5051244;28;45478;-88
2022/05/20 14:09:51;;;;;;;;;3.80;3.80;;;;;26.48;51.75;102322.78;5055187;28;45577;-87
2022/05/20 14:12:19;;;;;;;;;5.00;5.00;;;;;26.62;51.76;102350.34;5049684;28;45605;-86
2022/05/20 14:14:48;;;;;;;;;4.80;4.80;;;;;26.40;52.04;102303.72;5054442;28;45424;-88
2022/05/20 14:17:14;;;;;;;;;6.40;4.00;;;;;26.56;51.68;102333.66;5039551;28;45434;-88
2022/05/20 14:19:42;;;;;;;;;6.00;6.00;;;;;26.56;51.96;102330.13;5053094;28;45521;-88
2022/05/20 14:22:10;;;;;;;;;3.20;3.20;;;;;26.73;51.95;102346.41;5038765;28;46213;-86
2022/05/20 14:24:37;;;;;;;;;6.20;5.00;;;;;26.70;52.38;102361.22;5043565;28;45322;-88
2022/05/20 14:27:03;;;;;;;;;5.00;4.80;;;;;25.96;51.63;102235.94;5035567;28;46128;-87
2022/05/20 14:29:37;;;;;;;;;6.00;4.00;;;;;26.60;52.18;102327.88;5057239;28;44891;-87
2022/05/20 14:32:02;;;;;;;;;5.00;3.80;;;;;26.75;52.14;102350.66;5058243;28;45548;-88
2022/05/20 14:34:38;;;;;;;;;4.75;4.75;;;;;26.64;52.44;102331.97;5068810;28;48999;-88
2022/05/20 14:37:14;;;;;;;;;5.40;4.60;;;;;26.48;52.28;102297.50;5054534;28;45456;-88
2022/05/20 14:39:54;;;;;;;;;5.20;3.20;;;;;26.64;52.12;102324.66;5034454;28;45399;-88
2022/05/20 14:42:31;;;;;;;;;4.80;4.20;;;;;26.69;52.00;102337.75;5051293;28;45514;-87
2022/05/20 14:45:01;;;;;;;;;5.00;4.00;;;;;26.73;52.19;102339.09;5037642;28;45622;-88
2022/05/20 14:47:58;;;;;;;;;5.00;5.00;;;;;26.83;52.32;102352.50;5035998;28;45541;-89
2022/05/20 14:50:24;;;;;;;;;3.40;3.40;;;;;26.63;51.89;102316.66;5084125;27;45521;-88
2022/05/20 14:53:02;;;;;;;;;4.40;4.00;;;;;26.48;52.21;102287.44;5038336;28;46719;-87
2022/05/20 14:55:31;;;;;;;;;4.60;3.80;;;;;26.31;51.87;102262.94;5051468;28;45463;-87
2022/05/20 14:58:16;;;;;;;;;4.00;4.00;;;;;26.88;52.37;102347.38;5032621;28;45396;-87
2022/05/20 15:01:25;;;;;;;;;3.80;3.80;;;;;26.78;51.92;102331.25;5050383;28;45426;-88
2022/05/20 15:03:50;;;;;;;;;4.00;4.00;;;;;26.93;51.94;102349.59;5023165;28;45487;-88
2022/05/20 15:06:29;;;;;;;;;4.00;4.00;;;;;26.95;52.15;102352.13;4974027;28;45751;-88
2022/05/20 15:08:54;;;;;;;;;6.20;5.40;;;;;26.73;51.58;102321.91;4995061;28;45524;-87
2022/05/20 15:11:27;;;;;;;;;5.00;4.25;;;;;26.63;52.05;102300.31;4993872;28;46108;-88
2022/05/20 15:13:52;;;;;;;;;4.60;3.80;;;;;26.90;51.61;102334.47;4979246;28;48005;-88
2022/05/20 15:16:18;;;;;;;;;5.75;3.75;;;;;26.53;51.89;102287.78;5008867;28;45800;-87
2022/05/20 15:18:43;;;;;;;;;6.00;6.00;;;;;26.41;51.44;102265.50;4988765;28;45776;-89
2022/05/20 15:21:13;;;;;;;;;3.75;3.00;;;;;27.04;52.36;102345.66;5020945;28;45297;-88
2022/05/20 15:23:41;;;;;;;;;3.00;3.00;;;;;26.40;51.43;102243.88;4998286;28;47471;-88
2022/05/20 15:26:08;;;;;;;;;4.00;4.00;;;;;26.51;51.76;102268.03;5027449;28;45392;-89
2022/05/20 15:28:51;;;;;;;;;6.40;5.20;;;;;26.80;51.55;102303.84;4984949;28;45625;-88
2022/05/20 15:37:12;;;;;;;;;3.80;3.60;;;;;26.96;51.66;102332.94;5001180;28;45633;-88
2022/05/20 15:39:40;;;;;;;;;3.40;3.40;;;;;27.10;51.85;102355.00;5080418;27;45493;-88
2022/05/20 15:42:06;;;;;;;;;5.20;4.00;;;;;26.75;51.25;102288.06;5048110;28;45488;-87
2022/05/20 15:44:31;;;;;;;;;4.75;4.75;;;;;26.41;51.50;102229.28;5065946;27;46428;-89
2022/05/20 15:46:58;;;;;;;;;4.00;4.00;;;;;26.84;51.65;102296.19;5059919;28;45374;-88
2022/05/20 15:49:24;;;;;;;;;5.80;3.80;;;;;26.72;51.18;102282.97;5046553;28;45679;-87
2022/05/20 15:51:49;;;;;;;;;4.00;4.00;;;;;27.05;51.21;102330.16;5030589;28;45668;-88
2022/05/20 15:54:15;;;;;;;;;4.00;4.00;;;;;26.74;51.40;102270.03;5046392;28;47582;-88
2022/05/20 15:56:40;;;;;;;;;4.00;3.00;;;;;26.60;51.00;102254.41;5030751;28;45371;-88
2022/05/20 15:59:06;;;;;;;;;5.25;3.75;;;;;27.05;51.20;102319.28;5049810;28;45969;-87
2022/05/20 16:01:31;;;;;;;;;4.00;4.00;;;;;26.96;50.98;102310.28;5049307;28;45648;-88
2022/05/20 16:03:57;;;;;;;;;3.50;3.50;;;;;27.08;51.00;102335.28;5050797;28;45609;-88
2022/05/20 16:06:24;;;;;;;;;4.00;4.00;;;;;27.16;51.31;102337.13;5049641;28;45520;-88
2022/05/20 16:08:49;;;;;;;;;4.20;3.80;;;;;27.17;50.97;102346.97;5032626;28;45430;-88
2022/05/20 16:11:22;;;;;;;;;4.25;4.25;;;;;27.21;51.69;102348.34;5048491;28;45956;-88
2022/05/20 16:13:47;;;;;;;;;5.80;4.20;;;;;27.20;51.01;102342.03;5049567;28;46164;-88
2022/05/20 16:16:12;;;;;;;;;4.25;4.25;;;;;26.73;51.01;102272.94;5048299;28;45446;-88
2022/05/20 16:18:38;;;;;;;;;5.00;5.00;;;;;27.07;51.04;102328.13;5025337;28;47115;-89
2022/05/20 16:21:03;;;;;;;;;3.00;3.00;;;;;27.27;50.75;102355.81;5032855;28;45419;-87
2022/05/20 16:23:31;;;;;;;;;5.00;4.25;;;;;27.25;50.72;102343.41;5045325;28;47327;-88
2022/05/20 16:25:57;;;;;;;;;4.00;4.00;;;;;27.07;50.50;102319.94;5018736;28;46192;-87
2022/05/20 16:28:24;;;;;;;;;5.20;5.20;;;;;26.74;50.64;102270.03;5048226;27;45467;-88
2022/05/20 16:30:49;;;;;;;;;5.00;4.00;;;;;26.72;50.76;102258.47;5030641;28;45649;-88
2022/05/20 16:33:15;;;;;;;;;4.00;4.00;;;;;26.94;51.05;102293.25;5010057;28;47026;-87
2022/05/20 16:35:40;;;;;;;;;6.50;4.00;;;;;26.76;51.04;102259.84;5030540;28;45552;-88
2022/05/20 16:38:07;;;;;;;;;5.00;5.00;;;;;27.38;51.11;102365.47;5032519;28;45835;-88
2022/05/20 16:40:32;;;;;;;;;4.80;4.40;;;;;26.95;50.96;102289.53;5067972;27;46815;-88
2022/05/20 16:42:58;;;;;;;;;4.00;3.50;;;;;26.81;51.22;102266.59;5029560;28;46431;-87
2022/05/20 16:45:24;;;;;;;;;3.25;3.25;;;;;26.87;50.82;102274.94;5033543;28;45375;-88
2022/05/20 16:48:08;;;;;;;;;7.00;5.00;;;;;27.31;51.46;102350.88;5035124;28;45419;-87
2022/05/20 16:50:35;;;;;;;;;3.00;3.00;;;;;26.77;50.79;102258.78;5052737;28;45648;-88
2022/05/20 16:53:01;;;;;;;;;5.00;3.20;;;;;26.85;50.64;102274.22;5023910;28;48755;-88
2022/05/20 16:55:27;;;;;;;;;3.00;2.60;;;;;26.93;50.92;102284.25;5023179;28;45562;-88
2022/05/20 17:03:20;;;;;;;;;4.00;3.80;;;;;27.27;50.44;102333.16;5037696;28;45480;-87
2022/05/20 17:05:46;;;;;;;;;4.25;3.00;;;;;27.43;50.72;102370.38;5053431;28;45405;-90
2022/05/20 17:08:11;;;;;;;;;4.00;3.75;;;;;27.17;50.23;102326.06;5022246;28;45348;-88
2022/05/20 17:10:38;;;;;;;;;2.75;2.25;;;;;27.34;50.19;102351.34;5035088;28;45811;-88
2022/05/20 17:13:30;;;;;;;;;3.20;2.00;;;;;27.31;50.64;102342.69;5024788;28;46323;-88
2022/05/20 17:15:59;;;;;;;;;1.80;1.80;;;;;27.20;50.25;102333.00;5074485;27;45474;-87
2022/05/20 17:18:24;;;;;;;;;2.60;2.60;;;;;26.98;50.53;102287.31;5036338;28;45565;-87
2022/05/20 17:20:50;;;;;;;;;2.00;2.00;;;;;26.98;50.23;102290.03;5042146;28;45650;-87
2022/05/20 17:26:01;;;;;;;;;2.00;2.00;;;;;27.19;49.20;102318.56;5037223;28;45608;-87
2022/05/20 17:28:27;;;;;;;;;1.80;1.80;;;;;27.36;49.73;102353.91;5047858;28;45603;-88
2022/05/20 17:30:53;;;;;;;;;2.50;1.00;;;;;26.98;49.13;102287.31;5035580;27;45530;-89
2022/05/20 17:33:18;;;;;;;;;0.75;0.75;;;;;26.92;48.77;102279.84;5052890;27;46977;-88
2022/05/20 17:35:44;;;;;;;;;2.00;2.00;;;;;27.37;48.80;102355.59;5049754;28;45527;-88
2022/05/20 17:38:09;;;;;;;;;1.75;1.75;;;;;26.93;48.61;102294.31;5046675;28;45533;-88
2022/05/20 17:40:34;;;;;;;;;2.00;2.00;;;;;27.03;49.05;102299.53;5049729;28;45704;-89
2022/05/20 17:43:00;;;;;;;;;2.00;1.50;;;;;26.76;49.20;102268.00;5069212;28;45563;-89
2022/05/20 17:45:25;;;;;;;;;1.50;1.50;;;;;26.93;48.49;102297.03;5053770;28;45605;-89
2022/05/20 17:47:51;;;;;;;;;1.75;1.75;;;;;27.23;47.92;102338.97;5030441;28;45540;-88
2022/05/20 17:50:16;;;;;;;;;1.75;1.75;;;;;26.85;47.50;102287.84;5040072;28;45911;-88
2022/05/20 17:52:42;;;;;;;;;0.75;0.75;;;;;26.78;47.27;102292.31;5035361;28;46967;-89
2022/05/20 17:55:07;;;;;;;;;1.00;1.00;;;;;26.54;47.25;102259.53;5036747;28;45329;-89
2022/05/20 17:57:33;;;;;;;;;1.00;1.00;;;;;27.03;46.92;102321.31;5022857;28;45792;-89
2022/05/20 17:59:58;;;;;;;;;0.00;0.00;;;;;27.21;46.68;102362.81;5040193;28;45731;-89
2022/05/20 18:02:27;;;;;;;;;1.75;0.75;;;;;26.74;46.44;102286.34;5035588;28;45699;-89
2022/05/20 18:04:53;;;;;;;;;0.80;0.80;;;;;27.20;46.41;102360.25;5037445;28;46874;-88
2022/05/20 18:07:18;;;;;;;;;1.00;1.00;;;;;26.99;46.44;102326.28;5030709;28;45810;-89
2022/05/20 18:09:43;;;;;;;;;2.00;1.25;;;;;26.72;46.55;102293.84;5051452;28;45813;-89
2022/05/20 18:12:15;;;;;;;;;0.50;0.50;;;;;27.14;46.10;102367.22;5017884;28;47172;-90
2022/05/20 18:14:45;;;;;;;;;2.00;2.00;;;;;26.55;46.54;102279.44;5039987;28;45727;-90
2022/05/20 18:17:12;;;;;;;;;3.00;1.00;;;;;26.77;45.42;102313.22;5032587;28;45745;-89
2022/05/20 18:19:40;;;;;;;;;3.00;1.00;;;;;26.58;45.96;102298.13;5031372;28;45269;-89
2022/05/20 18:22:05;;;;;;;;;3.20;3.00;;;;;26.78;46.09;102325.81;5032437;28;46131;-89
2022/05/20 18:24:38;;;;;;;;;1.00;1.00;;;;;27.03;45.97;102359.44;5014044;28;45442;-90
2022/05/20 18:27:06;;;;;;;;;1.40;1.00;;;;;26.82;45.09;102322.75;5015593;28;45545;-90
2022/05/20 18:29:32;;;;;;;;;0.40;0.40;;;;;26.94;45.59;102350.44;5049971;28;45687;-90
2022/05/20 18:31:57;;;;;;;;;2.60;0.60;;;;;26.70;45.48;102312.22;5050488;27;47143;-89
2022/05/20 18:39:53;;;;;;;;;1.00;1.00;;;;;26.68;45.10;102315.13;5044111;28;45927;-90
2022/05/20 18:42:20;;;;;;;;;1.00;1.00;;;;;26.53;44.78;102295.94;5010867;28;46779;-90
2022/05/20 18:44:46;;;;;;;;;1.60;1.60;;;;;26.66;45.42;102319.03;5033219;28;45630;-90
2022/05/20 18:47:14;;;;;;;;;2.60;1.60;;;;;26.94;45.12;102373.06;5043651;28;45519;-91
2022/05/20 18:49:39;;;;;;;;;0.80;0.00;;;;;26.73;45.05;102335.53;5034973;28;45820;-88
2022/05/20 18:52:05;;;;;;;;;1.00;1.00;;;;;26.84;44.29;102364.25;5031525;28;47687;-90
2022/05/20 18:54:31;;;;;;;;;3.40;1.40;;;;;26.95;44.05;102385.66;5024707;28;45749;-90
2022/05/20 18:56:56;;;;;;;;;2.00;0.75;;;;;26.34;43.75;102280.78;5013722;28;45756;-90
2022/05/20 18:59:24;;;;;;;;;0.00;0.00;;;;;26.56;43.77;102321.97;5027875;28;45566;-91
2022/05/20 19:01:50;;;;;;;;;0.00;0.00;;;;;26.53;43.98;102334.03;5049334;28;45463;-90
2022/05/20 19:04:15;;;;;;;;;0.00;0.00;;;;;26.81;43.44;102370.91;5045078;28;45476;-89
2022/05/20 19:06:41;;;;;;;;;1.00;1.00;;;;;26.53;44.27;102323.16;5027693;28;45832;-89
2022/05/20 19:09:06;;;;;;;;;2.00;0.75;;;;;26.60;44.18;102339.63;5031781;28;45434;-89
2022/05/20 19:11:34;;;;;;;;;3.75;2.00;;;;;26.51;44.08;102340.66;5047477;28;45836;-90
2022/05/20 19:14:00;;;;;;;;;1.20;0.20;;;;;26.73;43.67;102377.22;5045467;27;45522;-89
2022/05/20 19:16:25;;;;;;;;;1.50;0.00;;;;;26.54;44.34;102348.47;5078930;27;46011;-89
2022/05/20 19:18:51;;;;;;;;;1.00;1.00;;;;;26.95;43.45;102418.34;5064828;27;45654;-90
2022/05/20 19:21:16;;;;;;;;;2.00;0.50;;;;;26.44;43.94;102335.88;5028000;28;47434;-89
2022/05/20 19:23:42;;;;;;;;;1.25;0.75;;;;;26.32;43.02;102327.22;5048391;28;45498;-89
2022/05/20 19:26:08;;;;;;;;;1.00;1.00;;;;;26.17;43.15;102301.72;5050716;28;45804;-89
2022/05/20 19:28:34;;;;;;;;;0.25;0.25;;;;;26.50;43.11;102360.72;5038034;28;45775;-89
2022/05/20 19:31:00;;;;;;;;;0.60;0.60;;;;;26.86;43.08;102432.97;5045845;28;48373;-90
2022/05/20 19:33:25;;;;;;;;;2.00;1.00;;;;;26.23;42.52;102337.25;5047223;27;46177;-90
2022/05/20 19:35:54;;;;;;;;;1.00;1.00;;;;;26.06;42.71;102309.19;5030134;28;45467;-90
2022/05/20 19:38:23;;;;;;;;;1.20;1.20;;;;;26.19;42.42;102332.31;5032006;28;45543;-90
2022/05/20 19:40:51;;;;;;;;;1.00;1.00;;;;;26.04;41.78;102313.97;5050202;27;48501;-89
2022/05/20 19:43:19;;;;;;;;;4.40;1.40;;;;;26.43;41.78;102368.69;5062987;27;45442;-89
2022/05/20 19:45:44;;;;;;;;;0.80;0.80;;;;;26.50;41.20;102404.25;5032244;28;46238;-90
2022/05/20 19:48:10;;;;;;;;;0.00;0.00;;;;;26.39;41.38;102381.75;5030104;28;45464;-90
2022/05/20 19:50:36;;;;;;;;;1.25;1.25;;;;;25.97;41.77;102330.09;5031450;28;45789;-90
2022/05/20 19:53:03;;;;;;;;;1.00;1.00;;;;;25.75;41.67;102288.06;5050743;27;45692;-90
2022/05/20 19:55:28;;;;;;;;;2.60;1.20;;;;;26.12;41.51;102352.03;5045112;28;45540;-90
2022/05/20 20:00:50;;;;;;;;;1.00;1.00;;;;;26.23;41.32;102388.91;5029659;28;45870;-90
2022/05/20 20:03:23;;;;;;;;;1.80;0.80;;;;;26.02;41.68;102354.03;5018457;28;45455;-90
2022/05/20 20:05:48;;;;;;;;;1.00;1.00;;;;;25.84;41.22;102338.75;5047122;27;45478;-88
2022/05/20 20:08:14;;;;;;;;;0.25;0.25;;;;;25.59;41.49;102303.31;5063784;27;45563;-89
2022/05/20 20:10:40;;;;;;;;;0.50;0.25;;;;;26.26;41.25;102420.34;5065231;28;47313;-88
2022/05/20 20:13:05;;;;;;;;;1.50;1.50;;;;;26.32;40.79;102436.00;5050057;28;46097;-89
2022/05/20 20:15:31;;;;;;;;;1.00;1.00;;;;;25.70;40.88;102340.22;5036206;28;45428;-90
2022/05/20 20:17:56;;;;;;;;;1.50;1.00;;;;;25.51;41.14;102316.88;5033957;28;45491;-89
2022/05/20 20:20:23;;;;;;;;;2.25;1.00;;;;;25.85;41.29;102383.06;5090441;27;45751;-88
2022/05/20 20:28:17;;;;;;;;;0.40;0.40;;;;;25.61;40.92;102369.22;5048293;28;45875;-86
2022/05/20 20:30:43;;;;;;;;;0.00;0.00;;;;;25.48;41.09;102347.94;5011725;28;46652;-87
2022/05/20 20:33:08;;;;;;;;;1.00;1.00;;;;;25.81;41.32;102401.59;5044785;28;45640;-88
2022/05/20 20:35:34;;;;;;;;;1.25;1.25;;;;;25.89;41.25;102436.09;5044733;28;45790;-88
2022/05/20 20:37:59;;;;;;;;;1.00;1.00;;;;;25.83;41.33;102421.28;5066440;28;45669;-89
2022/05/20 20:40:25;;;;;;;;;1.00;1.00;;;;;25.41;41.48;102372.22;5046803;28;45682;-89
2022/05/20 20:42:50;;;;;;;;;1.00;1.00;;;;;25.67;41.59;102422.88;5018860;28;45747;-88
2022/05/20 20:45:16;;;;;;;;;1.00;1.00;;;;;25.27;41.61;102361.97;5060970;27;45591;-87